DLH1MK EDDV-EDDH
Flight info
| Callsign | DLH1MK |
|---|---|
| Flight time | 0h 35m |
| Altitude | 23000 |
| Route | CEL7S CEL Q282 DIRBO T902 RARUP RARUP3P |
| Aircraft | A20N/M-SDE2E3FGHIRWXY/LB1 |
Departure
| Time | 2026-05-03 20:38 |
|---|---|
| Airport | Hannover Airport (EDDV) |
Arrival
| Time | 2026-05-03 21:13 |
|---|---|
| Airport | Hamburg Helmut Schmidt Airport (EDDH) |
| Time | Latitude | Longitude | Altitude | Speed | Heading |
|---|---|---|---|---|---|
| 2026-05-03 20:16 | 52.45918 | 9.69293 | 191 ft | 0 kts | 94° |
| 2026-05-03 20:28 | 52.45918 | 9.69284 | 192 ft | 2 kts | 94° |
| 2026-05-03 20:29 | 52.45918 | 9.69269 | 192 ft | 2 kts | 94° |
| 2026-05-03 20:29 | 52.45917 | 9.69244 | 192 ft | 2 kts | 75° |
| 2026-05-03 20:29 | 52.45912 | 9.69221 | 192 ft | 2 kts | 62° |
| 2026-05-03 20:29 | 52.45904 | 9.69201 | 192 ft | 2 kts | 47° |
| 2026-05-03 20:30 | 52.45892 | 9.69185 | 192 ft | 2 kts | 32° |
| 2026-05-03 20:30 | 52.45879 | 9.69174 | 192 ft | 2 kts | 18° |
| 2026-05-03 20:30 | 52.45864 | 9.69169 | 192 ft | 2 kts | 3° |
| 2026-05-03 20:30 | 52.45849 | 9.69170 | 192 ft | 2 kts | 348° |
| 2026-05-03 20:31 | 52.45835 | 9.69178 | 192 ft | 2 kts | 334° |
| 2026-05-03 20:31 | 52.45824 | 9.69188 | 192 ft | 0 kts | 322° |
| 2026-05-03 20:31 | 52.45819 | 9.69195 | 192 ft | 0 kts | 320° |
| 2026-05-03 20:31 | 52.45820 | 9.69195 | 192 ft | 0 kts | 320° |
| 2026-05-03 20:33 | 52.45823 | 9.69189 | 192 ft | 2 kts | 320° |
| 2026-05-03 20:33 | 52.45859 | 9.69144 | 192 ft | 10 kts | 324° |
| 2026-05-03 20:34 | 52.45936 | 9.69048 | 192 ft | 16 kts | 322° |
| 2026-05-03 20:34 | 52.46030 | 9.68931 | 192 ft | 17 kts | 323° |
| 2026-05-03 20:34 | 52.46127 | 9.68809 | 192 ft | 17 kts | 322° |
| 2026-05-03 20:34 | 52.46233 | 9.68754 | 192 ft | 16 kts | 33° |
| 2026-05-03 20:35 | 52.46287 | 9.68923 | 192 ft | 17 kts | 68° |
| 2026-05-03 20:35 | 52.46332 | 9.69106 | 191 ft | 17 kts | 68° |
| 2026-05-03 20:35 | 52.46376 | 9.69293 | 192 ft | 17 kts | 69° |
| 2026-05-03 20:35 | 52.46422 | 9.69486 | 191 ft | 19 kts | 69° |
| 2026-05-03 20:36 | 52.46475 | 9.69694 | 191 ft | 20 kts | 65° |
| 2026-05-03 20:36 | 52.46531 | 9.69901 | 191 ft | 19 kts | 37° |
| 2026-05-03 20:36 | 52.46659 | 9.69944 | 191 ft | 18 kts | 353° |
| 2026-05-03 20:36 | 52.46702 | 9.69862 | 191 ft | 8 kts | 261° |
| 2026-05-03 20:37 | 52.46697 | 9.69758 | 191 ft | 9 kts | 277° |
| 2026-05-03 20:37 | 52.46704 | 9.69617 | 191 ft | 25 kts | 272° |
| 2026-05-03 20:37 | 52.46723 | 9.68878 | 192 ft | 101 kts | 274° |
| 2026-05-03 20:37 | 52.46767 | 9.67374 | 199 ft | 159 kts | 271° |
| 2026-05-03 20:38 | 52.46802 | 9.65544 | 775 ft | 164 kts | 270° |
| 2026-05-03 20:38 | 52.46852 | 9.63697 | 1553 ft | 164 kts | 272° |
| 2026-05-03 20:38 | 52.47078 | 9.61889 | 2297 ft | 171 kts | 292° |
| 2026-05-03 20:38 | 52.47904 | 9.60345 | 2827 ft | 193 kts | 311° |
| 2026-05-03 20:39 | 52.48942 | 9.58797 | 3341 ft | 212 kts | 312° |
| 2026-05-03 20:39 | 52.50057 | 9.57150 | 4014 ft | 224 kts | 312° |
| 2026-05-03 20:39 | 52.51315 | 9.55605 | 4843 ft | 236 kts | 332° |
| 2026-05-03 20:39 | 52.52938 | 9.55107 | 5697 ft | 248 kts | 354° |
| 2026-05-03 20:40 | 52.54657 | 9.55123 | 6537 ft | 252 kts | 356° |
| 2026-05-03 20:40 | 52.56419 | 9.55275 | 7342 ft | 260 kts | 8° |
| 2026-05-03 20:40 | 52.58031 | 9.56648 | 8114 ft | 271 kts | 46° |
| 2026-05-03 20:40 | 52.58956 | 9.59320 | 8749 ft | 278 kts | 82° |
| 2026-05-03 20:41 | 52.59061 | 9.62530 | 9257 ft | 289 kts | 96° |
| 2026-05-03 20:41 | 52.58984 | 9.65884 | 9707 ft | 305 kts | 96° |
| 2026-05-03 20:41 | 52.58915 | 9.69451 | 10136 ft | 317 kts | 95° |
| 2026-05-03 20:41 | 52.58881 | 9.73100 | 10676 ft | 331 kts | 94° |
| 2026-05-03 20:42 | 52.58873 | 9.76962 | 11064 ft | 349 kts | 93° |
| 2026-05-03 20:42 | 52.58879 | 9.81051 | 11412 ft | 367 kts | 92° |
| 2026-05-03 20:42 | 52.58893 | 9.85346 | 11723 ft | 385 kts | 92° |
| 2026-05-03 20:42 | 52.58908 | 9.89860 | 12041 ft | 402 kts | 92° |
| 2026-05-03 20:43 | 52.58922 | 9.94442 | 12597 ft | 409 kts | 92° |
| 2026-05-03 20:43 | 52.58981 | 9.99135 | 13284 ft | 413 kts | 87° |
| 2026-05-03 20:43 | 52.59465 | 10.03809 | 13951 ft | 419 kts | 76° |
| 2026-05-03 20:43 | 52.60461 | 10.08306 | 14554 ft | 424 kts | 66° |
| 2026-05-03 20:44 | 52.61752 | 10.12666 | 14893 ft | 426 kts | 64° |
| 2026-05-03 20:44 | 52.63106 | 10.17007 | 14906 ft | 427 kts | 63° |
| 2026-05-03 20:44 | 52.64442 | 10.21303 | 14937 ft | 427 kts | 64° |
| 2026-05-03 20:44 | 52.65778 | 10.25658 | 14900 ft | 426 kts | 64° |
| 2026-05-03 20:45 | 52.67097 | 10.30025 | 14938 ft | 426 kts | 64° |
| 2026-05-03 20:45 | 52.68412 | 10.34412 | 14945 ft | 427 kts | 65° |
| 2026-05-03 20:45 | 52.69707 | 10.38751 | 14955 ft | 427 kts | 65° |
| 2026-05-03 20:45 | 52.71015 | 10.43142 | 14938 ft | 427 kts | 65° |
| 2026-05-03 20:46 | 52.72324 | 10.47538 | 14928 ft | 428 kts | 65° |
| 2026-05-03 20:46 | 52.73629 | 10.51929 | 14932 ft | 428 kts | 65° |
| 2026-05-03 20:46 | 52.74939 | 10.56349 | 14919 ft | 428 kts | 65° |
| 2026-05-03 20:46 | 52.76244 | 10.60760 | 14915 ft | 429 kts | 65° |
| 2026-05-03 20:47 | 52.77551 | 10.65188 | 14916 ft | 429 kts | 66° |
| 2026-05-03 20:47 | 52.78841 | 10.69564 | 14914 ft | 429 kts | 66° |
| 2026-05-03 20:47 | 52.80139 | 10.73981 | 14912 ft | 429 kts | 66° |
| 2026-05-03 20:47 | 52.81635 | 10.78281 | 14897 ft | 431 kts | 52° |
| 2026-05-03 20:48 | 52.83870 | 10.81540 | 14905 ft | 432 kts | 30° |
| 2026-05-03 20:48 | 52.86655 | 10.83337 | 14909 ft | 428 kts | 8° |
| 2026-05-03 20:48 | 52.89556 | 10.83505 | 14915 ft | 423 kts | 351° |
| 2026-05-03 20:48 | 52.92493 | 10.82863 | 14917 ft | 421 kts | 348° |
| 2026-05-03 20:49 | 52.95358 | 10.82239 | 14911 ft | 422 kts | 349° |
| 2026-05-03 20:49 | 52.98268 | 10.81642 | 14910 ft | 422 kts | 349° |
| 2026-05-03 20:49 | 53.01178 | 10.81044 | 14910 ft | 422 kts | 349° |
| 2026-05-03 20:49 | 53.04085 | 10.80442 | 14881 ft | 423 kts | 349° |
| 2026-05-03 20:50 | 53.07018 | 10.79829 | 14636 ft | 422 kts | 349° |
| 2026-05-03 20:50 | 53.09926 | 10.79218 | 14387 ft | 421 kts | 349° |
| 2026-05-03 20:50 | 53.12827 | 10.78608 | 14135 ft | 419 kts | 349° |
| 2026-05-03 20:50 | 53.15705 | 10.77998 | 13891 ft | 418 kts | 349° |
| 2026-05-03 20:51 | 53.18549 | 10.77393 | 13647 ft | 417 kts | 349° |
| 2026-05-03 20:51 | 53.21414 | 10.76783 | 13401 ft | 415 kts | 349° |
| 2026-05-03 20:51 | 53.24289 | 10.76169 | 13079 ft | 413 kts | 349° |
| 2026-05-03 20:51 | 53.27123 | 10.75562 | 12710 ft | 411 kts | 349° |
| 2026-05-03 20:52 | 53.29927 | 10.74962 | 12338 ft | 409 kts | 349° |
| 2026-05-03 20:52 | 53.32730 | 10.74362 | 11971 ft | 407 kts | 349° |
| 2026-05-03 20:52 | 53.35551 | 10.73757 | 11571 ft | 404 kts | 349° |
| 2026-05-03 20:52 | 53.38319 | 10.73163 | 11169 ft | 400 kts | 349° |
| 2026-05-03 20:53 | 53.41035 | 10.72581 | 10781 ft | 392 kts | 349° |
| 2026-05-03 20:53 | 53.43704 | 10.72008 | 10389 ft | 384 kts | 349° |
| 2026-05-03 20:53 | 53.46304 | 10.71449 | 9998 ft | 378 kts | 349° |
| 2026-05-03 20:53 | 53.48885 | 10.70893 | 9647 ft | 367 kts | 349° |
| 2026-05-03 20:54 | 53.51353 | 10.70366 | 9344 ft | 350 kts | 348° |
| 2026-05-03 20:54 | 53.55939 | 10.69379 | 8744 ft | 321 kts | 348° |
| 2026-05-03 20:54 | 53.58128 | 10.68904 | 8443 ft | 314 kts | 348° |
| 2026-05-03 20:55 | 53.60260 | 10.68436 | 8146 ft | 309 kts | 347° |
| 2026-05-03 20:55 | 53.62391 | 10.67969 | 7839 ft | 304 kts | 347° |
| 2026-05-03 20:55 | 53.64447 | 10.67519 | 7544 ft | 300 kts | 347° |
| 2026-05-03 20:55 | 53.66528 | 10.67063 | 7235 ft | 299 kts | 347° |
| 2026-05-03 20:56 | 53.68581 | 10.66611 | 6925 ft | 296 kts | 347° |
| 2026-05-03 20:56 | 53.70590 | 10.66171 | 6617 ft | 294 kts | 347° |
| 2026-05-03 20:56 | 53.72614 | 10.65729 | 6305 ft | 293 kts | 347° |
| 2026-05-03 20:56 | 53.74633 | 10.65286 | 5995 ft | 291 kts | 346° |
| 2026-05-03 20:57 | 53.76630 | 10.64848 | 5684 ft | 289 kts | 346° |
| 2026-05-03 20:57 | 53.78600 | 10.64415 | 5373 ft | 288 kts | 346° |
| 2026-05-03 20:57 | 53.80579 | 10.63980 | 5084 ft | 285 kts | 346° |
| 2026-05-03 20:57 | 53.82518 | 10.63544 | 4991 ft | 281 kts | 344° |
| 2026-05-03 20:58 | 53.84325 | 10.62539 | 4998 ft | 270 kts | 325° |
| 2026-05-03 20:58 | 53.85798 | 10.60794 | 4970 ft | 250 kts | 314° |
| 2026-05-03 20:58 | 53.87094 | 10.58952 | 4860 ft | 239 kts | 312° |
| 2026-05-03 20:58 | 53.88215 | 10.57007 | 4725 ft | 221 kts | 295° |
| 2026-05-03 20:59 | 53.88753 | 10.54655 | 4621 ft | 211 kts | 274° |
| 2026-05-03 20:59 | 53.88721 | 10.52211 | 4499 ft | 206 kts | 255° |
| 2026-05-03 20:59 | 53.88171 | 10.49986 | 4374 ft | 206 kts | 237° |
| 2026-05-03 20:59 | 53.87290 | 10.48086 | 4248 ft | 205 kts | 232° |
| 2026-05-03 21:00 | 53.86397 | 10.46261 | 4129 ft | 204 kts | 232° |
| 2026-05-03 21:00 | 53.86094 | 10.45643 | 4089 ft | 204 kts | 232° |
| 2026-05-03 21:00 | 53.84582 | 10.42567 | 3879 ft | 203 kts | 232° |
| 2026-05-03 21:00 | 53.83690 | 10.40753 | 3759 ft | 202 kts | 232° |
| 2026-05-03 21:01 | 53.82789 | 10.38920 | 3650 ft | 203 kts | 232° |
| 2026-05-03 21:01 | 53.81891 | 10.37096 | 3549 ft | 203 kts | 232° |
| 2026-05-03 21:01 | 53.80980 | 10.35260 | 3451 ft | 203 kts | 232° |
| 2026-05-03 21:01 | 53.80058 | 10.33414 | 3350 ft | 204 kts | 231° |
| 2026-05-03 21:02 | 53.79148 | 10.31593 | 3249 ft | 204 kts | 231° |
| 2026-05-03 21:02 | 53.78241 | 10.29781 | 3151 ft | 203 kts | 231° |
| 2026-05-03 21:02 | 53.77337 | 10.27967 | 3052 ft | 203 kts | 232° |
| 2026-05-03 21:02 | 53.76430 | 10.26118 | 3000 ft | 203 kts | 232° |
| 2026-05-03 21:03 | 53.75545 | 10.24283 | 3000 ft | 202 kts | 233° |
| 2026-05-03 21:03 | 53.74686 | 10.22427 | 3001 ft | 197 kts | 233° |
| 2026-05-03 21:03 | 53.73855 | 10.20674 | 2993 ft | 183 kts | 232° |
| 2026-05-03 21:03 | 53.73073 | 10.19068 | 2908 ft | 173 kts | 232° |
| 2026-05-03 21:04 | 53.72308 | 10.17521 | 2681 ft | 171 kts | 232° |
| 2026-05-03 21:04 | 53.71544 | 10.15984 | 2442 ft | 168 kts | 232° |
| 2026-05-03 21:04 | 53.70810 | 10.14512 | 2300 ft | 159 kts | 232° |
| 2026-05-03 21:04 | 53.70116 | 10.13119 | 2064 ft | 154 kts | 232° |
| 2026-05-03 21:05 | 53.69440 | 10.11759 | 1833 ft | 148 kts | 232° |
| 2026-05-03 21:05 | 53.68794 | 10.10458 | 1629 ft | 141 kts | 232° |
| 2026-05-03 21:05 | 53.68199 | 10.09262 | 1439 ft | 126 kts | 232° |
| 2026-05-03 21:05 | 53.67648 | 10.08147 | 1269 ft | 123 kts | 231° |
| 2026-05-03 21:06 | 53.67089 | 10.07031 | 1119 ft | 124 kts | 232° |
| 2026-05-03 21:06 | 53.66543 | 10.05920 | 990 ft | 124 kts | 231° |
| 2026-05-03 21:06 | 53.65985 | 10.04801 | 810 ft | 126 kts | 232° |
| 2026-05-03 21:06 | 53.65429 | 10.03649 | 648 ft | 126 kts | 232° |
| 2026-05-03 21:07 | 53.64867 | 10.02531 | 477 ft | 126 kts | 231° |
| 2026-05-03 21:07 | 53.64296 | 10.01380 | 312 ft | 127 kts | 230° |
| 2026-05-03 21:07 | 53.63734 | 10.00244 | 142 ft | 127 kts | 229° |
| 2026-05-03 21:07 | 53.63176 | 9.99103 | 69 ft | 117 kts | 229° |
| 2026-05-03 21:08 | 53.62662 | 9.98081 | 146 ft | 122 kts | 231° |
| 2026-05-03 21:08 | 53.62012 | 9.97180 | 574 ft | 137 kts | 189° |
| 2026-05-03 21:08 | 53.61128 | 9.98092 | 838 ft | 184 kts | 116° |
| 2026-05-03 21:08 | 53.61230 | 10.00405 | 1095 ft | 221 kts | 59° |
| 2026-05-03 21:09 | 53.62271 | 10.02249 | 1670 ft | 208 kts | 42° |
| 2026-05-03 21:09 | 53.63134 | 10.04001 | 1847 ft | 182 kts | 51° |
| 2026-05-03 21:09 | 53.63756 | 10.05822 | 1861 ft | 180 kts | 63° |
| 2026-05-03 21:09 | 53.64380 | 10.07629 | 1716 ft | 179 kts | 51° |
| 2026-05-03 21:10 | 53.65164 | 10.09178 | 1588 ft | 170 kts | 46° |
| 2026-05-03 21:10 | 53.65959 | 10.10600 | 1289 ft | 158 kts | 14° |
| 2026-05-03 21:10 | 53.66842 | 10.10253 | 1091 ft | 130 kts | 297° |
| 2026-05-03 21:10 | 53.66944 | 10.08828 | 998 ft | 124 kts | 260° |
| 2026-05-03 21:11 | 53.66846 | 10.07372 | 1036 ft | 126 kts | 257° |
| 2026-05-03 21:11 | 53.66577 | 10.06005 | 944 ft | 125 kts | 240° |
| 2026-05-03 21:11 | 53.66036 | 10.04851 | 815 ft | 125 kts | 229° |
| 2026-05-03 21:11 | 53.65470 | 10.03740 | 634 ft | 124 kts | 231° |
| 2026-05-03 21:12 | 53.64916 | 10.02626 | 499 ft | 126 kts | 230° |
| 2026-05-03 21:12 | 53.64351 | 10.01491 | 349 ft | 127 kts | 229° |
| 2026-05-03 21:12 | 53.63784 | 10.00343 | 157 ft | 127 kts | 229° |
| 2026-05-03 21:12 | 53.63217 | 9.99194 | 64 ft | 122 kts | 232° |
| 2026-05-03 21:13 | 53.62767 | 9.98275 | 62 ft | 77 kts | 230° |
| 2026-05-03 21:13 | 53.62544 | 9.97828 | 62 ft | 24 kts | 225° |
| 2026-05-03 21:13 | 53.62433 | 9.97881 | 61 ft | 17 kts | 92° |
| 2026-05-03 21:13 | 53.62461 | 9.98074 | 62 ft | 16 kts | 58° |
| 2026-05-03 21:14 | 53.62534 | 9.98230 | 62 ft | 18 kts | 42° |
| 2026-05-03 21:14 | 53.62616 | 9.98368 | 62 ft | 13 kts | 73° |
| 2026-05-03 21:14 | 53.62677 | 9.98525 | 61 ft | 20 kts | 52° |
| 2026-05-03 21:14 | 53.62816 | 9.98809 | 62 ft | 43 kts | 50° |
| 2026-05-03 21:15 | 53.63038 | 9.99260 | 62 ft | 50 kts | 53° |
| 2026-05-03 21:15 | 53.63245 | 9.99701 | 62 ft | 46 kts | 45° |
| 2026-05-03 21:15 | 53.63407 | 10.00022 | 62 ft | 0 kts | 50° |